Great Bentley, United Kingdom
Current Conditions -  °F | °C
As of 11:50 AM on Thursday 27 Nov 2014 (Local Time) from EGUW Reporting Station
Broken Clouds Broken Clouds  
Wind Chill: 52°   Ceiling: 1400
Heat Index: 52°   Visibility: 6mi
Dew Point: 50°   Wind: 9mph
Humidity: 94%   Direction: 180°S
Pressure: 29.62"   Gusts: NA
Location:  51.85°N, 1.06°E
Report Text: EGUW 271150Z 18008KT 9999 SCT005 BKN014 11/10 Q1003 YLO1 TEMPO BKN014 GRN
Loading
Personal Weather Stations






























Interactive Weather Map New forecast layout! Learn more

10-Day Weather Forecast

Advertisements
Track Severe Weather on mobile